sensor_id;sensor_type;location;lat;lon;timestamp;P1;durP1;ratioP1;P2;durP2;ratioP2
9330;SDS011;4704;50.470;12.072;2023-09-30T00:02:15;9.70;;;6.63;;
9330;SDS011;4704;50.470;12.072;2023-09-30T00:04:42;12.73;;;7.45;;
9330;SDS011;4704;50.470;12.072;2023-09-30T00:07:10;10.45;;;7.03;;
9330;SDS011;4704;50.470;12.072;2023-09-30T00:09:37;10.70;;;7.15;;
9330;SDS011;4704;50.470;12.072;2023-09-30T00:12:05;11.27;;;7.30;;
9330;SDS011;4704;50.470;12.072;2023-09-30T00:14:33;12.02;;;7.28;;
9330;SDS011;4704;50.470;12.072;2023-09-30T00:17:02;9.90;;;6.82;;
9330;SDS011;4704;50.470;12.072;2023-09-30T00:19:31;11.80;;;7.53;;
9330;SDS011;4704;50.470;12.072;2023-09-30T00:21:59;11.48;;;8.02;;
9330;SDS011;4704;50.470;12.072;2023-09-30T00:24:26;11.63;;;7.50;;
9330;SDS011;4704;50.470;12.072;2023-09-30T00:26:54;11.18;;;7.57;;
9330;SDS011;4704;50.470;12.072;2023-09-30T00:29:21;12.02;;;7.50;;
9330;SDS011;4704;50.470;12.072;2023-09-30T00:31:49;11.65;;;7.30;;
9330;SDS011;4704;50.470;12.072;2023-09-30T00:34:16;12.00;;;7.75;;
9330;SDS011;4704;50.470;12.072;2023-09-30T00:36:45;12.27;;;8.07;;
9330;SDS011;4704;50.470;12.072;2023-09-30T00:39:13;12.50;;;7.95;;
9330;SDS011;4704;50.470;12.072;2023-09-30T00:41:40;12.25;;;7.85;;
9330;SDS011;4704;50.470;12.072;2023-09-30T00:44:08;11.10;;;7.25;;
9330;SDS011;4704;50.470;12.072;2023-09-30T00:46:35;13.13;;;7.97;;
9330;SDS011;4704;50.470;12.072;2023-09-30T00:49:05;11.73;;;7.50;;
9330;SDS011;4704;50.470;12.072;2023-09-30T00:51:32;11.50;;;7.13;;
9330;SDS011;4704;50.470;12.072;2023-09-30T00:54:02;10.35;;;6.88;;
9330;SDS011;4704;50.470;12.072;2023-09-30T00:56:31;10.30;;;6.85;;
9330;SDS011;4704;50.470;12.072;2023-09-30T00:58:59;9.48;;;6.85;;
9330;SDS011;4704;50.470;12.072;2023-09-30T01:01:29;9.90;;;6.25;;
9330;SDS011;4704;50.470;12.072;2023-09-30T01:03:56;9.60;;;6.20;;
9330;SDS011;4704;50.470;12.072;2023-09-30T01:06:24;9.63;;;6.32;;
9330;SDS011;4704;50.470;12.072;2023-09-30T01:08:52;8.93;;;6.07;;
9330;SDS011;4704;50.470;12.072;2023-09-30T01:11:21;8.90;;;6.10;;
9330;SDS011;4704;50.470;12.072;2023-09-30T01:13:48;9.20;;;6.20;;
9330;SDS011;4704;50.470;12.072;2023-09-30T01:16:16;9.38;;;6.07;;
9330;SDS011;4704;50.470;12.072;2023-09-30T01:18:44;10.00;;;6.68;;
9330;SDS011;4704;50.470;12.072;2023-09-30T01:21:11;7.75;;;5.55;;
9330;SDS011;4704;50.470;12.072;2023-09-30T01:23:40;8.85;;;5.93;;
9330;SDS011;4704;50.470;12.072;2023-09-30T01:26:10;9.50;;;6.05;;
9330;SDS011;4704;50.470;12.072;2023-09-30T01:28:38;9.35;;;5.80;;
9330;SDS011;4704;50.470;12.072;2023-09-30T01:31:06;8.55;;;5.63;;
9330;SDS011;4704;50.470;12.072;2023-09-30T01:33:33;8.38;;;5.72;;
9330;SDS011;4704;50.470;12.072;2023-09-30T01:36:01;7.93;;;5.35;;
9330;SDS011;4704;50.470;12.072;2023-09-30T01:38:29;8.73;;;5.93;;
9330;SDS011;4704;50.470;12.072;2023-09-30T01:40:58;8.57;;;5.60;;
9330;SDS011;4704;50.470;12.072;2023-09-30T01:43:25;9.45;;;5.78;;
9330;SDS011;4704;50.470;12.072;2023-09-30T01:45:53;8.82;;;5.82;;
9330;SDS011;4704;50.470;12.072;2023-09-30T01:48:20;8.45;;;5.60;;
9330;SDS011;4704;50.470;12.072;2023-09-30T01:50:48;7.60;;;5.05;;
9330;SDS011;4704;50.470;12.072;2023-09-30T01:53:16;8.55;;;5.72;;
9330;SDS011;4704;50.470;12.072;2023-09-30T01:55:43;6.75;;;4.90;;
9330;SDS011;4704;50.470;12.072;2023-09-30T01:58:12;7.45;;;4.78;;
9330;SDS011;4704;50.470;12.072;2023-09-30T02:00:40;7.18;;;4.93;;
9330;SDS011;4704;50.470;12.072;2023-09-30T02:03:07;7.03;;;4.93;;
9330;SDS011;4704;50.470;12.072;2023-09-30T02:05:35;8.13;;;5.10;;
9330;SDS011;4704;50.470;12.072;2023-09-30T02:08:03;7.45;;;5.03;;
9330;SDS011;4704;50.470;12.072;2023-09-30T02:10:31;7.63;;;4.90;;
9330;SDS011;4704;50.470;12.072;2023-09-30T02:12:59;6.93;;;4.72;;
9330;SDS011;4704;50.470;12.072;2023-09-30T02:15:28;6.40;;;4.63;;
9330;SDS011;4704;50.470;12.072;2023-09-30T02:17:56;7.00;;;4.50;;
9330;SDS011;4704;50.470;12.072;2023-09-30T02:20:25;6.45;;;4.50;;
9330;SDS011;4704;50.470;12.072;2023-09-30T02:22:55;6.85;;;4.57;;
9330;SDS011;4704;50.470;12.072;2023-09-30T02:25:24;6.40;;;4.47;;
9330;SDS011;4704;50.470;12.072;2023-09-30T02:27:51;6.45;;;4.68;;
9330;SDS011;4704;50.470;12.072;2023-09-30T02:30:19;6.57;;;4.45;;
9330;SDS011;4704;50.470;12.072;2023-09-30T02:32:48;6.40;;;4.20;;
9330;SDS011;4704;50.470;12.072;2023-09-30T02:35:16;7.03;;;4.70;;
9330;SDS011;4704;50.470;12.072;2023-09-30T02:37:44;5.78;;;4.38;;
9330;SDS011;4704;50.470;12.072;2023-09-30T02:40:12;6.03;;;4.38;;
9330;SDS011;4704;50.470;12.072;2023-09-30T02:42:40;5.38;;;4.30;;
9330;SDS011;4704;50.470;12.072;2023-09-30T02:45:08;5.80;;;4.10;;
9330;SDS011;4704;50.470;12.072;2023-09-30T02:47:36;5.60;;;3.90;;
9330;SDS011;4704;50.470;12.072;2023-09-30T02:50:08;5.65;;;4.03;;
9330;SDS011;4704;50.470;12.072;2023-09-30T02:52:36;6.68;;;4.35;;
9330;SDS011;4704;50.470;12.072;2023-09-30T02:55:06;5.72;;;3.90;;
9330;SDS011;4704;50.470;12.072;2023-09-30T02:57:34;5.38;;;3.95;;
9330;SDS011;4704;50.470;12.072;2023-09-30T03:00:02;4.70;;;3.40;;
9330;SDS011;4704;50.470;12.072;2023-09-30T03:02:39;5.10;;;3.58;;
9330;SDS011;4704;50.470;12.072;2023-09-30T03:05:08;5.25;;;3.83;;
9330;SDS011;4704;50.470;12.072;2023-09-30T03:07:37;4.95;;;3.65;;
9330;SDS011;4704;50.470;12.072;2023-09-30T03:10:06;4.68;;;3.58;;
9330;SDS011;4704;50.470;12.072;2023-09-30T03:12:34;5.68;;;3.70;;
9330;SDS011;4704;50.470;12.072;2023-09-30T03:15:02;6.35;;;3.78;;
9330;SDS011;4704;50.470;12.072;2023-09-30T03:17:29;5.70;;;3.63;;
9330;SDS011;4704;50.470;12.072;2023-09-30T03:19:57;4.88;;;3.40;;
9330;SDS011;4704;50.470;12.072;2023-09-30T03:22:26;5.05;;;3.63;;
9330;SDS011;4704;50.470;12.072;2023-09-30T03:24:54;4.43;;;3.30;;
9330;SDS011;4704;50.470;12.072;2023-09-30T03:27:22;4.65;;;3.30;;
9330;SDS011;4704;50.470;12.072;2023-09-30T03:29:50;5.05;;;3.42;;
9330;SDS011;4704;50.470;12.072;2023-09-30T03:32:18;4.75;;;3.60;;
9330;SDS011;4704;50.470;12.072;2023-09-30T03:34:46;4.53;;;3.03;;
9330;SDS011;4704;50.470;12.072;2023-09-30T03:37:14;4.45;;;3.22;;
9330;SDS011;4704;50.470;12.072;2023-09-30T03:39:43;4.60;;;3.38;;
9330;SDS011;4704;50.470;12.072;2023-09-30T03:42:14;4.25;;;3.15;;
9330;SDS011;4704;50.470;12.072;2023-09-30T03:44:41;3.88;;;2.97;;
9330;SDS011;4704;50.470;12.072;2023-09-30T03:47:09;4.75;;;3.00;;
9330;SDS011;4704;50.470;12.072;2023-09-30T03:49:37;4.70;;;3.47;;
9330;SDS011;4704;50.470;12.072;2023-09-30T03:52:04;4.28;;;3.00;;
9330;SDS011;4704;50.470;12.072;2023-09-30T03:54:33;4.32;;;3.15;;
9330;SDS011;4704;50.470;12.072;2023-09-30T03:57:02;4.38;;;2.90;;
9330;SDS011;4704;50.470;12.072;2023-09-30T03:59:30;3.88;;;2.90;;
9330;SDS011;4704;50.470;12.072;2023-09-30T04:01:57;4.40;;;2.95;;
9330;SDS011;4704;50.470;12.072;2023-09-30T04:04:25;3.67;;;2.70;;
9330;SDS011;4704;50.470;12.072;2023-09-30T04:06:52;3.25;;;2.58;;
9330;SDS011;4704;50.470;12.072;2023-09-30T04:09:19;3.90;;;2.70;;
9330;SDS011;4704;50.470;12.072;2023-09-30T04:11:47;3.53;;;2.50;;
9330;SDS011;4704;50.470;12.072;2023-09-30T04:14:16;4.22;;;2.95;;
9330;SDS011;4704;50.470;12.072;2023-09-30T04:16:44;3.70;;;2.72;;
9330;SDS011;4704;50.470;12.072;2023-09-30T04:19:11;4.10;;;2.90;;
9330;SDS011;4704;50.470;12.072;2023-09-30T04:21:39;3.30;;;2.60;;
9330;SDS011;4704;50.470;12.072;2023-09-30T04:24:06;3.97;;;2.90;;
9330;SDS011;4704;50.470;12.072;2023-09-30T04:26:34;3.40;;;2.70;;
9330;SDS011;4704;50.470;12.072;2023-09-30T04:29:02;3.95;;;2.80;;
9330;SDS011;4704;50.470;12.072;2023-09-30T04:31:37;3.55;;;2.55;;
9330;SDS011;4704;50.470;12.072;2023-09-30T04:34:07;3.83;;;2.60;;
9330;SDS011;4704;50.470;12.072;2023-09-30T04:36:34;3.40;;;2.47;;
9330;SDS011;4704;50.470;12.072;2023-09-30T04:39:02;3.50;;;2.72;;
9330;SDS011;4704;50.470;12.072;2023-09-30T04:41:30;3.63;;;2.50;;
9330;SDS011;4704;50.470;12.072;2023-09-30T04:43:58;3.30;;;2.30;;
9330;SDS011;4704;50.470;12.072;2023-09-30T04:46:25;3.05;;;2.40;;
9330;SDS011;4704;50.470;12.072;2023-09-30T04:48:54;2.70;;;2.13;;
9330;SDS011;4704;50.470;12.072;2023-09-30T04:51:22;3.08;;;2.40;;
9330;SDS011;4704;50.470;12.072;2023-09-30T04:53:51;3.08;;;2.50;;
9330;SDS011;4704;50.470;12.072;2023-09-30T04:56:20;3.42;;;2.47;;
9330;SDS011;4704;50.470;12.072;2023-09-30T04:58:48;3.53;;;2.53;;
9330;SDS011;4704;50.470;12.072;2023-09-30T05:01:15;3.85;;;2.58;;
9330;SDS011;4704;50.470;12.072;2023-09-30T05:03:43;3.28;;;2.30;;
9330;SDS011;4704;50.470;12.072;2023-09-30T05:06:15;3.03;;;2.30;;
9330;SDS011;4704;50.470;12.072;2023-09-30T05:08:43;2.95;;;2.38;;
9330;SDS011;4704;50.470;12.072;2023-09-30T05:11:10;2.78;;;2.05;;
9330;SDS011;4704;50.470;12.072;2023-09-30T05:13:38;3.20;;;2.55;;
9330;SDS011;4704;50.470;12.072;2023-09-30T05:16:05;2.88;;;1.95;;
9330;SDS011;4704;50.470;12.072;2023-09-30T05:18:33;2.30;;;1.95;;
9330;SDS011;4704;50.470;12.072;2023-09-30T05:21:00;2.30;;;2.10;;
9330;SDS011;4704;50.470;12.072;2023-09-30T05:23:29;3.03;;;2.30;;
9330;SDS011;4704;50.470;12.072;2023-09-30T05:25:57;3.10;;;2.30;;
9330;SDS011;4704;50.470;12.072;2023-09-30T05:28:25;3.08;;;2.40;;
9330;SDS011;4704;50.470;12.072;2023-09-30T05:30:53;3.00;;;2.40;;
9330;SDS011;4704;50.470;12.072;2023-09-30T05:33:21;2.10;;;1.75;;
9330;SDS011;4704;50.470;12.072;2023-09-30T05:35:48;2.65;;;2.05;;
9330;SDS011;4704;50.470;12.072;2023-09-30T05:38:17;2.63;;;2.13;;
9330;SDS011;4704;50.470;12.072;2023-09-30T05:40:47;2.65;;;1.92;;
9330;SDS011;4704;50.470;12.072;2023-09-30T05:43:14;2.25;;;1.98;;
9330;SDS011;4704;50.470;12.072;2023-09-30T05:45:42;2.88;;;2.00;;
9330;SDS011;4704;50.470;12.072;2023-09-30T05:48:14;2.90;;;2.03;;
9330;SDS011;4704;50.470;12.072;2023-09-30T05:50:42;3.75;;;2.15;;
9330;SDS011;4704;50.470;12.072;2023-09-30T05:53:10;2.83;;;2.08;;
9330;SDS011;4704;50.470;12.072;2023-09-30T05:55:37;2.60;;;2.08;;
9330;SDS011;4704;50.470;12.072;2023-09-30T05:58:08;2.65;;;1.90;;
9330;SDS011;4704;50.470;12.072;2023-09-30T06:00:39;2.38;;;1.88;;
9330;SDS011;4704;50.470;12.072;2023-09-30T06:03:07;2.95;;;2.10;;
9330;SDS011;4704;50.470;12.072;2023-09-30T06:05:38;2.25;;;1.77;;
9330;SDS011;4704;50.470;12.072;2023-09-30T06:08:07;3.33;;;2.20;;
9330;SDS011;4704;50.470;12.072;2023-09-30T06:10:36;2.55;;;2.00;;
9330;SDS011;4704;50.470;12.072;2023-09-30T06:13:09;2.70;;;2.20;;
9330;SDS011;4704;50.470;12.072;2023-09-30T06:15:37;2.72;;;1.92;;
9330;SDS011;4704;50.470;12.072;2023-09-30T06:18:07;2.47;;;2.00;;
9330;SDS011;4704;50.470;12.072;2023-09-30T06:20:34;2.55;;;1.85;;
9330;SDS011;4704;50.470;12.072;2023-09-30T06:23:02;2.63;;;1.80;;
9330;SDS011;4704;50.470;12.072;2023-09-30T06:25:30;2.00;;;1.80;;
9330;SDS011;4704;50.470;12.072;2023-09-30T06:27:58;2.42;;;1.92;;
9330;SDS011;4704;50.470;12.072;2023-09-30T06:30:27;2.80;;;2.03;;
9330;SDS011;4704;50.470;12.072;2023-09-30T06:32:55;2.50;;;1.85;;
9330;SDS011;4704;50.470;12.072;2023-09-30T06:35:25;2.17;;;1.85;;
9330;SDS011;4704;50.470;12.072;2023-09-30T06:37:52;3.47;;;1.88;;
9330;SDS011;4704;50.470;12.072;2023-09-30T06:40:20;1.90;;;1.52;;
9330;SDS011;4704;50.470;12.072;2023-09-30T06:42:49;2.20;;;1.60;;
9330;SDS011;4704;50.470;12.072;2023-09-30T06:45:17;2.67;;;1.75;;
9330;SDS011;4704;50.470;12.072;2023-09-30T06:47:46;1.85;;;1.65;;
9330;SDS011;4704;50.470;12.072;2023-09-30T06:50:14;1.98;;;1.70;;
9330;SDS011;4704;50.470;12.072;2023-09-30T06:52:42;2.65;;;2.00;;
9330;SDS011;4704;50.470;12.072;2023-09-30T06:55:12;2.65;;;1.80;;
9330;SDS011;4704;50.470;12.072;2023-09-30T06:57:42;2.58;;;1.80;;
9330;SDS011;4704;50.470;12.072;2023-09-30T07:00:10;2.80;;;2.00;;
9330;SDS011;4704;50.470;12.072;2023-09-30T07:02:38;2.92;;;1.92;;
9330;SDS011;4704;50.470;12.072;2023-09-30T07:05:08;2.00;;;1.58;;
9330;SDS011;4704;50.470;12.072;2023-09-30T07:07:36;1.80;;;1.70;;
9330;SDS011;4704;50.470;12.072;2023-09-30T07:10:05;2.33;;;1.60;;
9330;SDS011;4704;50.470;12.072;2023-09-30T07:12:33;1.88;;;1.60;;
9330;SDS011;4704;50.470;12.072;2023-09-30T07:15:00;2.38;;;1.65;;
9330;SDS011;4704;50.470;12.072;2023-09-30T07:17:28;3.35;;;1.80;;
9330;SDS011;4704;50.470;12.072;2023-09-30T07:19:56;3.15;;;1.80;;
9330;SDS011;4704;50.470;12.072;2023-09-30T07:22:26;3.03;;;1.83;;
9330;SDS011;4704;50.470;12.072;2023-09-30T07:24:53;2.33;;;1.77;;
9330;SDS011;4704;50.470;12.072;2023-09-30T07:27:21;2.20;;;1.60;;
9330;SDS011;4704;50.470;12.072;2023-09-30T07:29:48;2.92;;;1.77;;
9330;SDS011;4704;50.470;12.072;2023-09-30T07:32:16;1.70;;;1.40;;
9330;SDS011;4704;50.470;12.072;2023-09-30T07:34:43;2.13;;;1.48;;
9330;SDS011;4704;50.470;12.072;2023-09-30T07:37:11;2.45;;;1.65;;
9330;SDS011;4704;50.470;12.072;2023-09-30T07:39:41;2.33;;;1.67;;
9330;SDS011;4704;50.470;12.072;2023-09-30T07:42:08;2.40;;;1.50;;
9330;SDS011;4704;50.470;12.072;2023-09-30T07:44:36;2.05;;;1.60;;
9330;SDS011;4704;50.470;12.072;2023-09-30T07:47:03;2.92;;;1.50;;
9330;SDS011;4704;50.470;12.072;2023-09-30T07:49:32;2.33;;;1.60;;
9330;SDS011;4704;50.470;12.072;2023-09-30T07:52:00;2.60;;;1.80;;
9330;SDS011;4704;50.470;12.072;2023-09-30T07:54:28;2.63;;;1.73;;
9330;SDS011;4704;50.470;12.072;2023-09-30T07:56:57;2.17;;;1.33;;
9330;SDS011;4704;50.470;12.072;2023-09-30T07:59:25;2.03;;;1.60;;
9330;SDS011;4704;50.470;12.072;2023-09-30T08:01:52;2.60;;;1.63;;
9330;SDS011;4704;50.470;12.072;2023-09-30T08:04:20;2.33;;;1.58;;
9330;SDS011;4704;50.470;12.072;2023-09-30T08:06:48;1.75;;;1.42;;
9330;SDS011;4704;50.470;12.072;2023-09-30T08:09:16;1.83;;;1.40;;
9330;SDS011;4704;50.470;12.072;2023-09-30T08:11:43;2.85;;;1.63;;
9330;SDS011;4704;50.470;12.072;2023-09-30T08:14:12;2.30;;;1.45;;
9330;SDS011;4704;50.470;12.072;2023-09-30T08:16:40;3.88;;;1.73;;
9330;SDS011;4704;50.470;12.072;2023-09-30T08:19:08;2.45;;;1.60;;
9330;SDS011;4704;50.470;12.072;2023-09-30T08:21:35;1.92;;;1.40;;
9330;SDS011;4704;50.470;12.072;2023-09-30T08:24:03;4.05;;;1.70;;
9330;SDS011;4704;50.470;12.072;2023-09-30T08:26:31;3.55;;;1.50;;
9330;SDS011;4704;50.470;12.072;2023-09-30T08:28:59;2.15;;;1.50;;
9330;SDS011;4704;50.470;12.072;2023-09-30T08:31:28;2.97;;;1.67;;
9330;SDS011;4704;50.470;12.072;2023-09-30T08:33:55;3.05;;;1.60;;
9330;SDS011;4704;50.470;12.072;2023-09-30T08:36:23;2.40;;;1.50;;
9330;SDS011;4704;50.470;12.072;2023-09-30T08:38:50;2.92;;;1.55;;
9330;SDS011;4704;50.470;12.072;2023-09-30T08:41:24;4.93;;;1.70;;
9330;SDS011;4704;50.470;12.072;2023-09-30T08:43:52;2.78;;;1.50;;
9330;SDS011;4704;50.470;12.072;2023-09-30T08:46:23;3.22;;;1.70;;
9330;SDS011;4704;50.470;12.072;2023-09-30T08:48:52;1.48;;;1.20;;
9330;SDS011;4704;50.470;12.072;2023-09-30T08:51:20;2.25;;;1.50;;
9330;SDS011;4704;50.470;12.072;2023-09-30T08:53:48;1.90;;;1.38;;
9330;SDS011;4704;50.470;12.072;2023-09-30T08:56:16;1.90;;;1.60;;
9330;SDS011;4704;50.470;12.072;2023-09-30T08:58:45;1.95;;;1.50;;
9330;SDS011;4704;50.470;12.072;2023-09-30T09:01:13;2.08;;;1.60;;
9330;SDS011;4704;50.470;12.072;2023-09-30T09:03:40;2.08;;;1.30;;
9330;SDS011;4704;50.470;12.072;2023-09-30T09:06:09;2.92;;;1.70;;
9330;SDS011;4704;50.470;12.072;2023-09-30T09:08:37;3.30;;;1.90;;
9330;SDS011;4704;50.470;12.072;2023-09-30T09:11:06;1.77;;;1.40;;
9330;SDS011;4704;50.470;12.072;2023-09-30T09:13:45;2.65;;;1.55;;
9330;SDS011;4704;50.470;12.072;2023-09-30T09:16:14;1.90;;;1.70;;
9330;SDS011;4704;50.470;12.072;2023-09-30T09:18:42;2.63;;;1.63;;
9330;SDS011;4704;50.470;12.072;2023-09-30T09:21:11;2.97;;;1.52;;
9330;SDS011;4704;50.470;12.072;2023-09-30T09:23:40;3.17;;;1.52;;
9330;SDS011;4704;50.470;12.072;2023-09-30T09:26:07;2.55;;;1.50;;
9330;SDS011;4704;50.470;12.072;2023-09-30T09:28:35;2.45;;;1.60;;
9330;SDS011;4704;50.470;12.072;2023-09-30T09:33:47;2.67;;;1.40;;
9330;SDS011;4704;50.470;12.072;2023-09-30T09:36:17;2.80;;;1.50;;
9330;SDS011;4704;50.470;12.072;2023-09-30T09:38:46;3.10;;;1.58;;
9330;SDS011;4704;50.470;12.072;2023-09-30T09:41:15;2.88;;;1.75;;
9330;SDS011;4704;50.470;12.072;2023-09-30T09:43:42;4.07;;;1.85;;
9330;SDS011;4704;50.470;12.072;2023-09-30T09:46:10;3.78;;;1.95;;
9330;SDS011;4704;50.470;12.072;2023-09-30T09:48:39;3.50;;;1.48;;
9330;SDS011;4704;50.470;12.072;2023-09-30T09:51:06;2.80;;;1.52;;
9330;SDS011;4704;50.470;12.072;2023-09-30T09:53:40;4.88;;;1.83;;
9330;SDS011;4704;50.470;12.072;2023-09-30T09:56:08;2.75;;;1.60;;
9330;SDS011;4704;50.470;12.072;2023-09-30T09:58:37;3.60;;;2.00;;
9330;SDS011;4704;50.470;12.072;2023-09-30T10:01:06;5.13;;;1.95;;
9330;SDS011;4704;50.470;12.072;2023-09-30T10:03:35;3.05;;;1.92;;
9330;SDS011;4704;50.470;12.072;2023-09-30T10:06:03;3.15;;;1.80;;
9330;SDS011;4704;50.470;12.072;2023-09-30T10:08:32;3.55;;;1.90;;
9330;SDS011;4704;50.470;12.072;2023-09-30T10:11:02;2.20;;;1.42;;
9330;SDS011;4704;50.470;12.072;2023-09-30T10:19:08;4.72;;;1.98;;
9330;SDS011;4704;50.470;12.072;2023-09-30T10:21:35;2.45;;;1.40;;
9330;SDS011;4704;50.470;12.072;2023-09-30T10:26:47;3.38;;;1.80;;
9330;SDS011;4704;50.470;12.072;2023-09-30T10:29:39;2.50;;;1.73;;
9330;SDS011;4704;50.470;12.072;2023-09-30T10:32:07;3.88;;;1.98;;
9330;SDS011;4704;50.470;12.072;2023-09-30T10:34:34;2.25;;;1.60;;
9330;SDS011;4704;50.470;12.072;2023-09-30T10:39:54;3.30;;;2.00;;
9330;SDS011;4704;50.470;12.072;2023-09-30T10:45:05;2.42;;;1.60;;
9330;SDS011;4704;50.470;12.072;2023-09-30T10:47:37;3.00;;;2.00;;
9330;SDS011;4704;50.470;12.072;2023-09-30T10:52:48;2.45;;;1.67;;
9330;SDS011;4704;50.470;12.072;2023-09-30T10:55:17;4.65;;;1.90;;
9330;SDS011;4704;50.470;12.072;2023-09-30T10:57:45;2.90;;;1.73;;
9330;SDS011;4704;50.470;12.072;2023-09-30T11:00:19;3.45;;;1.90;;
9330;SDS011;4704;50.470;12.072;2023-09-30T11:02:48;3.88;;;1.90;;
9330;SDS011;4704;50.470;12.072;2023-09-30T11:05:16;2.78;;;1.73;;
9330;SDS011;4704;50.470;12.072;2023-09-30T11:07:47;3.55;;;2.20;;
9330;SDS011;4704;50.470;12.072;2023-09-30T11:10:16;2.47;;;1.60;;
9330;SDS011;4704;50.470;12.072;2023-09-30T11:12:53;1.95;;;1.50;;
9330;SDS011;4704;50.470;12.072;2023-09-30T11:15:23;4.43;;;2.30;;
9330;SDS011;4704;50.470;12.072;2023-09-30T11:17:51;2.10;;;1.60;;
9330;SDS011;4704;50.470;12.072;2023-09-30T11:20:19;2.65;;;1.83;;
9330;SDS011;4704;50.470;12.072;2023-09-30T11:22:47;2.50;;;1.60;;
9330;SDS011;4704;50.470;12.072;2023-09-30T11:25:16;3.13;;;1.65;;
9330;SDS011;4704;50.470;12.072;2023-09-30T11:27:44;2.90;;;1.75;;
9330;SDS011;4704;50.470;12.072;2023-09-30T11:30:12;3.75;;;1.80;;
9330;SDS011;4704;50.470;12.072;2023-09-30T11:32:42;2.78;;;1.90;;
9330;SDS011;4704;50.470;12.072;2023-09-30T11:35:09;2.38;;;1.60;;
9330;SDS011;4704;50.470;12.072;2023-09-30T11:37:40;2.95;;;1.90;;
9330;SDS011;4704;50.470;12.072;2023-09-30T11:40:11;3.42;;;2.03;;
9330;SDS011;4704;50.470;12.072;2023-09-30T11:42:40;3.45;;;1.63;;
9330;SDS011;4704;50.470;12.072;2023-09-30T11:45:20;2.38;;;1.70;;
9330;SDS011;4704;50.470;12.072;2023-09-30T11:47:49;3.97;;;1.70;;
9330;SDS011;4704;50.470;12.072;2023-09-30T11:50:17;3.70;;;1.88;;
9330;SDS011;4704;50.470;12.072;2023-09-30T11:52:44;2.95;;;1.73;;
9330;SDS011;4704;50.470;12.072;2023-09-30T11:55:13;2.67;;;1.45;;
9330;SDS011;4704;50.470;12.072;2023-09-30T11:57:41;3.58;;;1.70;;
9330;SDS011;4704;50.470;12.072;2023-09-30T12:00:09;3.35;;;1.42;;
9330;SDS011;4704;50.470;12.072;2023-09-30T12:02:39;5.50;;;1.75;;
9330;SDS011;4704;50.470;12.072;2023-09-30T12:05:08;6.78;;;2.00;;
9330;SDS011;4704;50.470;12.072;2023-09-30T12:07:37;5.38;;;1.80;;
9330;SDS011;4704;50.470;12.072;2023-09-30T12:10:06;7.10;;;2.10;;
9330;SDS011;4704;50.470;12.072;2023-09-30T12:12:35;6.45;;;2.17;;
9330;SDS011;4704;50.470;12.072;2023-09-30T12:15:05;7.35;;;2.20;;
9330;SDS011;4704;50.470;12.072;2023-09-30T12:17:34;5.60;;;1.85;;
9330;SDS011;4704;50.470;12.072;2023-09-30T12:20:04;4.85;;;2.03;;
9330;SDS011;4704;50.470;12.072;2023-09-30T12:22:33;6.95;;;2.28;;
9330;SDS011;4704;50.470;12.072;2023-09-30T12:25:02;5.07;;;2.17;;
9330;SDS011;4704;50.470;12.072;2023-09-30T12:27:30;3.80;;;1.70;;
9330;SDS011;4704;50.470;12.072;2023-09-30T12:29:57;5.55;;;1.73;;
9330;SDS011;4704;50.470;12.072;2023-09-30T12:32:25;7.28;;;1.73;;
9330;SDS011;4704;50.470;12.072;2023-09-30T12:34:53;5.28;;;1.70;;
9330;SDS011;4704;50.470;12.072;2023-09-30T12:37:21;4.95;;;1.75;;
9330;SDS011;4704;50.470;12.072;2023-09-30T12:39:50;4.68;;;1.98;;
9330;SDS011;4704;50.470;12.072;2023-09-30T12:42:17;4.05;;;1.70;;
9330;SDS011;4704;50.470;12.072;2023-09-30T12:44:45;2.42;;;1.23;;
9330;SDS011;4704;50.470;12.072;2023-09-30T12:47:12;3.65;;;1.40;;
9330;SDS011;4704;50.470;12.072;2023-09-30T12:49:40;4.78;;;1.23;;
9330;SDS011;4704;50.470;12.072;2023-09-30T12:52:07;2.78;;;1.33;;
9330;SDS011;4704;50.470;12.072;2023-09-30T12:54:35;3.00;;;1.40;;
9330;SDS011;4704;50.470;12.072;2023-09-30T12:57:04;4.50;;;1.60;;
9330;SDS011;4704;50.470;12.072;2023-09-30T12:59:32;3.05;;;1.45;;
9330;SDS011;4704;50.470;12.072;2023-09-30T13:02:00;2.70;;;1.33;;
9330;SDS011;4704;50.470;12.072;2023-09-30T13:04:30;2.50;;;1.40;;
9330;SDS011;4704;50.470;12.072;2023-09-30T13:06:58;2.00;;;1.45;;
9330;SDS011;4704;50.470;12.072;2023-09-30T13:09:25;3.10;;;1.75;;
9330;SDS011;4704;50.470;12.072;2023-09-30T13:11:52;2.30;;;1.40;;
9330;SDS011;4704;50.470;12.072;2023-09-30T13:14:21;1.98;;;1.33;;
9330;SDS011;4704;50.470;12.072;2023-09-30T13:16:49;2.25;;;1.30;;
9330;SDS011;4704;50.470;12.072;2023-09-30T13:19:16;1.67;;;1.20;;
9330;SDS011;4704;50.470;12.072;2023-09-30T13:21:46;3.70;;;1.58;;
9330;SDS011;4704;50.470;12.072;2023-09-30T13:24:14;2.30;;;1.33;;
9330;SDS011;4704;50.470;12.072;2023-09-30T13:26:41;3.05;;;1.38;;
9330;SDS011;4704;50.470;12.072;2023-09-30T13:29:09;2.58;;;1.38;;
9330;SDS011;4704;50.470;12.072;2023-09-30T13:31:39;1.38;;;1.10;;
9330;SDS011;4704;50.470;12.072;2023-09-30T13:34:07;2.70;;;1.30;;
9330;SDS011;4704;50.470;12.072;2023-09-30T13:36:35;2.45;;;1.50;;
9330;SDS011;4704;50.470;12.072;2023-09-30T13:39:03;2.65;;;1.30;;
9330;SDS011;4704;50.470;12.072;2023-09-30T13:41:33;2.30;;;1.42;;
9330;SDS011;4704;50.470;12.072;2023-09-30T13:44:00;2.10;;;1.48;;
9330;SDS011;4704;50.470;12.072;2023-09-30T13:46:28;3.28;;;1.67;;
9330;SDS011;4704;50.470;12.072;2023-09-30T13:48:57;1.70;;;1.30;;
9330;SDS011;4704;50.470;12.072;2023-09-30T13:51:24;1.80;;;1.40;;
9330;SDS011;4704;50.470;12.072;2023-09-30T13:53:52;2.10;;;1.30;;
9330;SDS011;4704;50.470;12.072;2023-09-30T13:56:20;2.75;;;1.40;;
9330;SDS011;4704;50.470;12.072;2023-09-30T13:58:48;1.83;;;1.48;;
9330;SDS011;4704;50.470;12.072;2023-09-30T14:01:15;3.00;;;1.67;;
9330;SDS011;4704;50.470;12.072;2023-09-30T14:03:45;3.47;;;1.80;;
9330;SDS011;4704;50.470;12.072;2023-09-30T14:06:14;3.22;;;1.60;;
9330;SDS011;4704;50.470;12.072;2023-09-30T14:08:42;3.65;;;1.60;;
9330;SDS011;4704;50.470;12.072;2023-09-30T14:11:09;2.55;;;1.63;;
9330;SDS011;4704;50.470;12.072;2023-09-30T14:13:37;5.85;;;1.95;;
9330;SDS011;4704;50.470;12.072;2023-09-30T14:16:05;3.08;;;1.95;;
9330;SDS011;4704;50.470;12.072;2023-09-30T14:18:33;4.07;;;2.00;;
9330;SDS011;4704;50.470;12.072;2023-09-30T14:21:01;5.13;;;1.83;;
9330;SDS011;4704;50.470;12.072;2023-09-30T14:23:30;3.03;;;2.00;;
9330;SDS011;4704;50.470;12.072;2023-09-30T14:25:58;3.20;;;2.00;;
9330;SDS011;4704;50.470;12.072;2023-09-30T14:28:29;3.42;;;1.83;;
9330;SDS011;4704;50.470;12.072;2023-09-30T14:30:57;4.03;;;1.80;;
9330;SDS011;4704;50.470;12.072;2023-09-30T14:33:24;3.72;;;2.00;;
9330;SDS011;4704;50.470;12.072;2023-09-30T14:35:52;3.65;;;2.03;;
9330;SDS011;4704;50.470;12.072;2023-09-30T14:38:19;4.28;;;1.63;;
9330;SDS011;4704;50.470;12.072;2023-09-30T14:40:48;3.42;;;1.85;;
9330;SDS011;4704;50.470;12.072;2023-09-30T14:43:16;2.53;;;1.50;;
9330;SDS011;4704;50.470;12.072;2023-09-30T14:45:43;2.88;;;1.80;;
9330;SDS011;4704;50.470;12.072;2023-09-30T14:48:11;3.30;;;1.63;;
9330;SDS011;4704;50.470;12.072;2023-09-30T14:50:47;2.05;;;1.60;;
9330;SDS011;4704;50.470;12.072;2023-09-30T14:53:15;1.58;;;1.48;;
9330;SDS011;4704;50.470;12.072;2023-09-30T14:55:42;3.22;;;1.55;;
9330;SDS011;4704;50.470;12.072;2023-09-30T14:58:11;2.00;;;1.55;;
9330;SDS011;4704;50.470;12.072;2023-09-30T15:00:39;1.88;;;1.40;;
9330;SDS011;4704;50.470;12.072;2023-09-30T15:03:07;1.73;;;1.50;;
9330;SDS011;4704;50.470;12.072;2023-09-30T15:05:36;2.40;;;1.48;;
9330;SDS011;4704;50.470;12.072;2023-09-30T15:08:03;1.98;;;1.25;;
9330;SDS011;4704;50.470;12.072;2023-09-30T15:10:33;2.80;;;1.50;;
9330;SDS011;4704;50.470;12.072;2023-09-30T15:13:01;2.08;;;1.30;;
9330;SDS011;4704;50.470;12.072;2023-09-30T15:15:35;2.35;;;1.50;;
9330;SDS011;4704;50.470;12.072;2023-09-30T15:18:05;1.75;;;1.17;;
9330;SDS011;4704;50.470;12.072;2023-09-30T15:20:37;2.92;;;1.40;;
9330;SDS011;4704;50.470;12.072;2023-09-30T15:23:05;3.47;;;1.40;;
9330;SDS011;4704;50.470;12.072;2023-09-30T15:25:32;2.63;;;1.38;;
9330;SDS011;4704;50.470;12.072;2023-09-30T15:28:00;2.08;;;1.38;;